Time;durP1;ratioP1;P1;durP2;ratioP2;P2;SDS_P1;SDS_P2;PMS_P1;PMS_P2;Temp;Humidity;BMP_temperature;BMP_pressure;BME280_temperature;BME280_humidity;BME280_pressure;Samples;Min_cycle;Max_cycle;Signal;HPM_P1;HPM_P2
2021/01/25 00:01:32;;;;;;;7.83;3.93;;;-0.30;99.90;;;;;;4975848;28;20026;-88
2021/01/25 00:03:58;;;;;;;8.37;3.53;;;-0.30;99.90;;;;;;4967547;28;20027;-88
2021/01/25 00:06:23;;;;;;;9.40;3.70;;;-0.30;99.90;;;;;;4976890;28;20072;-88
2021/01/25 00:08:49;;;;;;;7.30;3.47;;;-0.40;99.90;;;;;;4976512;28;20038;-88
2021/01/25 00:11:15;;;;;;;8.47;3.50;;;-0.30;99.90;;;;;;4962012;28;20075;-88
2021/01/25 00:13:40;;;;;;;9.20;3.40;;;-0.30;99.90;;;;;;4968067;28;20031;-89
2021/01/25 00:16:06;;;;;;;9.00;3.73;;;-0.30;99.90;;;;;;4960669;28;20059;-88
2021/01/25 00:18:32;;;;;;;9.17;4.10;;;-0.30;99.90;;;;;;4977438;28;20038;-88
2021/01/25 00:20:57;;;;;;;10.63;4.23;;;-0.30;99.90;;;;;;4965615;28;20026;-88
2021/01/25 00:23:23;;;;;;;8.30;3.80;;;-0.30;99.90;;;;;;4977179;28;20034;-88
2021/01/25 00:25:48;;;;;;;8.43;3.77;;;-0.40;99.90;;;;;;4967430;28;20023;-87
2021/01/25 00:28:14;;;;;;;7.30;3.53;;;-0.40;99.90;;;;;;4964220;28;20055;-88
2021/01/25 00:30:40;;;;;;;8.90;3.53;;;-0.40;99.90;;;;;;4947331;28;20126;-88
2021/01/25 00:33:05;;;;;;;8.47;3.67;;;-0.40;99.90;;;;;;4967592;28;20053;-88
2021/01/25 00:35:31;;;;;;;7.17;3.20;;;-0.40;99.90;;;;;;4959989;28;20461;-87
2021/01/25 00:37:57;;;;;;;9.40;3.47;;;-0.40;99.90;;;;;;4966875;28;20746;-88
2021/01/25 00:40:22;;;;;;;8.77;3.40;;;-0.40;99.90;;;;;;4959087;28;20073;-88
2021/01/25 00:42:48;;;;;;;8.20;3.30;;;-0.50;99.90;;;;;;4971640;28;20029;-88
2021/01/25 00:45:14;;;;;;;6.17;2.87;;;-0.50;99.90;;;;;;4975590;28;20035;-89
2021/01/25 00:47:39;;;;;;;7.20;3.40;;;-0.50;99.90;;;;;;4976491;28;20028;-88
2021/01/25 00:50:05;;;;;;;7.60;3.00;;;-0.50;99.90;;;;;;4973026;28;20023;-88
2021/01/25 00:52:31;;;;;;;6.47;3.27;;;-0.50;99.90;;;;;;4967380;28;20438;-88
2021/01/25 00:54:57;;;;;;;5.07;2.57;;;-0.50;99.90;;;;;;4966625;28;20031;-88
2021/01/25 00:57:22;;;;;;;4.97;2.93;;;-0.50;99.90;;;;;;4959386;28;20494;-88
2021/01/25 00:59:48;;;;;;;7.27;2.90;;;-0.40;99.90;;;;;;4967690;28;20030;-88
2021/01/25 01:02:13;;;;;;;6.90;3.50;;;-0.40;99.90;;;;;;4967031;28;20035;-87
2021/01/25 01:04:39;;;;;;;7.60;2.90;;;-0.40;99.90;;;;;;4960870;28;20381;-88
2021/01/25 01:07:05;;;;;;;7.27;3.00;;;-0.30;99.90;;;;;;4975947;28;20054;-88
2021/01/25 01:09:30;;;;;;;6.93;3.33;;;-0.30;99.90;;;;;;4974944;28;20396;-88
2021/01/25 01:11:56;;;;;;;7.03;2.90;;;-0.40;99.90;;;;;;4967017;28;20038;-88
2021/01/25 01:14:25;;;;;;;6.03;2.70;;;-0.30;99.90;;;;;;4960615;28;20539;-88
2021/01/25 01:16:51;;;;;;;6.40;3.17;;;-0.30;99.90;;;;;;4958729;28;20042;-88
2021/01/25 01:19:17;;;;;;;6.67;3.37;;;-0.30;99.90;;;;;;4958325;28;20031;-89
2021/01/25 01:21:43;;;;;;;7.67;3.47;;;-0.30;99.90;;;;;;4973448;28;20090;-88
2021/01/25 01:24:09;;;;;;;7.23;3.20;;;-0.30;99.90;;;;;;4957622;28;20041;-88
2021/01/25 01:26:35;;;;;;;6.87;2.97;;;-0.30;99.90;;;;;;4960667;28;20027;-88
2021/01/25 01:29:01;;;;;;;7.33;3.20;;;-0.30;99.90;;;;;;4946621;28;20033;-88
2021/01/25 01:31:26;;;;;;;6.63;3.17;;;-0.30;99.90;;;;;;4968678;28;20034;-88
2021/01/25 01:33:52;;;;;;;8.67;3.23;;;-0.30;99.90;;;;;;4962722;28;20066;-88
2021/01/25 01:36:17;;;;;;;7.33;2.77;;;-0.30;99.90;;;;;;4959155;28;20141;-88
2021/01/25 01:38:43;;;;;;;6.83;2.87;;;-0.40;99.90;;;;;;4957953;28;20034;-88
2021/01/25 01:41:09;;;;;;;6.90;2.80;;;-0.40;99.90;;;;;;4971719;28;20384;-88
2021/01/25 01:43:34;;;;;;;8.13;3.47;;;-0.30;99.90;;;;;;4957609;28;20046;-88
2021/01/25 01:46:01;;;;;;;7.27;3.10;;;-0.40;99.90;;;;;;4961105;28;20163;-88
2021/01/25 01:48:27;;;;;;;5.03;2.80;;;-0.40;99.90;;;;;;4958051;28;20033;-88
2021/01/25 01:50:53;;;;;;;5.63;2.93;;;-0.30;99.90;;;;;;4957965;28;20118;-88
2021/01/25 01:53:19;;;;;;;5.83;2.80;;;-0.40;99.90;;;;;;4957992;28;20114;-88
2021/01/25 01:55:45;;;;;;;6.87;3.33;;;-0.40;99.90;;;;;;4968318;28;20628;-88
2021/01/25 01:58:11;;;;;;;7.03;3.30;;;-0.40;99.90;;;;;;4960965;28;20069;-88
2021/01/25 02:00:37;;;;;;;8.03;3.20;;;-0.50;99.90;;;;;;4965031;28;20102;-88
2021/01/25 02:03:03;;;;;;;9.67;3.30;;;-0.40;99.90;;;;;;4973515;28;20031;-88
2021/01/25 02:05:29;;;;;;;6.50;3.13;;;-0.50;99.90;;;;;;4966362;28;20035;-88
2021/01/25 02:07:59;;;;;;;5.83;2.77;;;-0.40;99.90;;;;;;4961512;28;20027;-87
2021/01/25 02:10:27;;;;;;;6.80;2.70;;;-0.50;99.90;;;;;;4963191;28;20101;-88
2021/01/25 02:12:57;;;;;;;6.83;3.20;;;-0.40;99.90;;;;;;4957289;28;20033;-88
2021/01/25 02:15:23;;;;;;;7.37;3.53;;;-0.40;99.90;;;;;;4964462;28;20035;-88
2021/01/25 02:17:50;;;;;;;8.03;4.30;;;-0.50;99.90;;;;;;4958354;28;20504;-88
2021/01/25 02:20:42;;;;;;;8.37;4.40;;;-0.50;99.90;;;;;;4957201;28;20035;-88
2021/01/25 02:23:23;;;;;;;8.37;4.00;;;-0.60;99.90;;;;;;4960758;28;20057;-88
2021/01/25 02:26:16;;;;;;;7.63;3.90;;;-0.60;99.90;;;;;;4964197;28;20027;-89
2021/01/25 02:28:41;;;;;;;;;;;-0.60;99.90;;;;;;4965312;28;20018;-89
2021/01/25 02:31:09;;;;;;;9.20;3.90;;;-0.50;99.90;;;;;;4974316;28;19913;-88
2021/01/25 02:33:49;;;;;;;6.63;3.17;;;-0.50;99.90;;;;;;4959074;28;20077;-87
2021/01/25 02:36:16;;;;;;;7.93;3.77;;;-0.50;99.90;;;;;;4968831;28;20038;-89
2021/01/25 02:38:46;;;;;;;8.03;3.80;;;-0.50;99.90;;;;;;4968917;28;20027;-88
2021/01/25 02:41:14;;;;;;;8.03;3.53;;;-0.50;99.90;;;;;;4960295;28;20058;-88
2021/01/25 02:43:43;;;;;;;8.73;3.93;;;-0.40;99.90;;;;;;4967060;28;20026;-89
2021/01/25 02:46:10;;;;;;;7.97;3.83;;;-0.40;99.90;;;;;;4958743;28;20077;-88
2021/01/25 02:48:36;;;;;;;7.00;3.83;;;-0.50;99.90;;;;;;4965974;28;20033;-89
2021/01/25 02:51:03;;;;;;;7.63;3.77;;;-0.40;99.90;;;;;;4969561;28;20126;-88
2021/01/25 02:53:29;;;;;;;11.87;3.53;;;-0.40;99.90;;;;;;4959555;28;20387;-88
2021/01/25 02:55:56;;;;;;;7.77;4.07;;;-0.50;99.90;;;;;;4980108;28;20022;-88
2021/01/25 02:58:23;;;;;;;10.53;4.27;;;-0.50;99.90;;;;;;4976457;28;20031;-88
2021/01/25 03:00:49;;;;;;;8.77;3.60;;;-0.50;99.90;;;;;;4966168;28;20023;-87
2021/01/25 03:03:16;;;;;;;6.50;3.77;;;-0.40;99.90;;;;;;4975826;28;20077;-87
2021/01/25 03:05:43;;;;;;;8.13;4.00;;;-0.50;99.90;;;;;;4960440;28;20031;-87
2021/01/25 03:08:08;;;;;;;9.90;3.70;;;-0.40;99.90;;;;;;4960038;28;20046;-88
2021/01/25 03:10:34;;;;;;;8.90;4.23;;;-0.40;99.90;;;;;;4961914;28;20388;-88
2021/01/25 03:13:04;;;;;;;7.57;3.70;;;-0.30;99.90;;;;;;4969114;28;20022;-88
2021/01/25 03:15:32;;;;;;;9.00;4.10;;;-0.30;99.90;;;;;;4967698;28;20045;-88
2021/01/25 03:17:58;;;;;;;7.67;4.00;;;-0.30;99.90;;;;;;4970801;28;20023;-88
2021/01/25 03:20:24;;;;;;;7.77;3.50;;;-0.30;99.90;;;;;;4969002;28;20452;-88
2021/01/25 03:22:49;;;;;;;7.80;3.90;;;-0.40;99.90;;;;;;4957782;28;20039;-88
2021/01/25 03:25:15;;;;;;;7.77;4.07;;;-0.50;99.90;;;;;;4957702;28;20034;-88
2021/01/25 03:27:41;;;;;;;8.20;4.43;;;-0.50;99.90;;;;;;4958857;28;20034;-88
2021/01/25 03:30:10;;;;;;;8.60;4.20;;;-0.50;99.90;;;;;;4969289;28;20023;-88
2021/01/25 03:32:35;;;;;;;9.83;4.80;;;-0.60;99.90;;;;;;4960305;28;20035;-87
2021/01/25 03:35:03;;;;;;;9.53;4.37;;;-0.60;99.90;;;;;;4973121;28;20037;-88
2021/01/25 03:37:30;;;;;;;11.50;4.87;;;-0.70;99.90;;;;;;4961070;28;20054;-88
2021/01/25 03:39:55;;;;;;;7.97;4.50;;;-0.70;99.90;;;;;;4971736;28;20035;-88
2021/01/25 03:42:21;;;;;;;13.33;5.37;;;-0.80;99.90;;;;;;4959674;28;20488;-88
2021/01/25 03:44:47;;;;;;;9.00;4.70;;;-0.80;99.90;;;;;;4977969;28;20030;-88
2021/01/25 03:47:12;;;;;;;11.63;4.80;;;-0.80;99.90;;;;;;4962563;28;20035;-87
2021/01/25 03:49:38;;;;;;;10.03;5.17;;;-0.90;99.90;;;;;;4960821;28;20031;-88
2021/01/25 03:52:04;;;;;;;8.70;5.23;;;-0.80;99.90;;;;;;4949728;28;20531;-88
2021/01/25 03:54:29;;;;;;;8.03;4.80;;;-0.90;99.90;;;;;;4977883;28;20046;-88
2021/01/25 03:56:55;;;;;;;11.53;5.30;;;-0.80;99.90;;;;;;4970812;28;20839;-88
2021/01/25 03:59:20;;;;;;;8.47;4.33;;;-0.80;99.90;;;;;;4968169;28;20034;-88
2021/01/25 04:01:46;;;;;;;9.73;5.00;;;-0.80;99.90;;;;;;4952370;28;20192;-88
2021/01/25 04:04:12;;;;;;;9.13;5.23;;;-0.70;99.90;;;;;;4961338;28;20121;-88
2021/01/25 04:06:37;;;;;;;8.00;4.63;;;-0.60;99.90;;;;;;4961521;28;20026;-88
2021/01/25 04:09:05;;;;;;;8.33;5.20;;;-0.60;99.90;;;;;;4961559;28;20459;-87
2021/01/25 04:11:31;;;;;;;8.57;4.63;;;-0.60;99.90;;;;;;4978226;28;20030;-88
2021/01/25 04:13:57;;;;;;;8.17;4.53;;;-0.50;99.90;;;;;;4968328;28;20034;-88
2021/01/25 04:16:23;;;;;;;7.47;4.10;;;-0.50;99.90;;;;;;4958243;28;20089;-88
2021/01/25 04:18:48;;;;;;;7.83;4.63;;;-0.50;99.90;;;;;;4976707;28;20031;-88
2021/01/25 04:21:16;;;;;;;10.30;5.10;;;-0.50;99.90;;;;;;4960109;28;20061;-88
2021/01/25 04:23:42;;;;;;;7.77;4.37;;;-0.50;99.90;;;;;;4973394;28;20062;-87
2021/01/25 04:26:07;;;;;;;8.07;4.50;;;-0.50;99.90;;;;;;4967610;28;20494;-88
2021/01/25 04:28:33;;;;;;;7.70;4.77;;;-0.50;99.90;;;;;;4962455;28;20154;-89
2021/01/25 04:30:59;;;;;;;10.53;4.47;;;-0.50;99.90;;;;;;4966071;28;20070;-88
2021/01/25 04:33:24;;;;;;;8.33;4.67;;;-0.50;99.90;;;;;;4958085;28;20030;-88
2021/01/25 04:35:50;;;;;;;7.87;4.33;;;-0.40;99.90;;;;;;4957335;28;20019;-88
2021/01/25 04:38:15;;;;;;;8.93;4.47;;;-0.50;99.90;;;;;;4974862;28;20038;-88
2021/01/25 04:40:41;;;;;;;10.43;5.40;;;-0.50;99.90;;;;;;4966508;28;20465;-88
2021/01/25 04:43:08;;;;;;;9.07;5.40;;;-0.40;99.90;;;;;;4958166;28;20019;-88
2021/01/25 04:45:33;;;;;;;8.67;4.83;;;-0.50;99.90;;;;;;4975503;28;20035;-87
2021/01/25 04:48:00;;;;;;;8.93;5.30;;;-0.40;99.90;;;;;;4973942;28;20030;-87
2021/01/25 04:50:26;;;;;;;8.20;4.53;;;-0.40;99.90;;;;;;4962452;28;20030;-87
2021/01/25 04:52:52;;;;;;;8.87;4.90;;;-0.50;99.90;;;;;;4974987;28;20034;-88
2021/01/25 04:55:19;;;;;;;8.93;4.80;;;-0.50;99.90;;;;;;4956499;28;20125;-87
2021/01/25 04:57:45;;;;;;;9.30;5.23;;;-0.50;99.90;;;;;;4959370;28;20134;-87
2021/01/25 05:00:13;;;;;;;8.10;4.90;;;-0.60;99.90;;;;;;4969031;28;20073;-88
2021/01/25 05:02:39;;;;;;;8.83;4.57;;;-0.50;99.90;;;;;;4956869;28;20108;-88
2021/01/25 05:05:07;;;;;;;8.83;4.80;;;-0.50;99.90;;;;;;4957237;28;20057;-87
2021/01/25 05:07:32;;;;;;;10.17;4.93;;;-0.50;99.90;;;;;;4963683;28;20417;-88
2021/01/25 05:09:59;;;;;;;9.27;5.10;;;-0.50;99.90;;;;;;4958587;28;20029;-88
2021/01/25 05:12:25;;;;;;;9.63;4.57;;;-0.50;99.90;;;;;;4957476;28;20023;-88
2021/01/25 05:14:50;;;;;;;9.40;4.80;;;-0.50;99.90;;;;;;4975253;28;20031;-88
2021/01/25 05:17:16;;;;;;;9.13;5.77;;;-0.50;99.90;;;;;;4962917;28;20038;-87
2021/01/25 05:19:46;;;;;;;8.77;5.27;;;-0.50;99.90;;;;;;4946474;28;20469;-89
2021/01/25 05:22:19;;;;;;;9.30;5.70;;;-0.40;99.90;;;;;;4969148;28;20556;-88
2021/01/25 05:24:54;;;;;;;9.97;5.93;;;-0.50;99.90;;;;;;4975582;28;20034;-88
2021/01/25 05:27:31;;;;;;;9.97;5.70;;;-0.40;99.90;;;;;;4960806;28;20027;-88
2021/01/25 05:30:11;;;;;;;9.03;5.77;;;-0.40;99.90;;;;;;4957641;28;20027;-87
2021/01/25 05:32:48;;;;;;;10.70;5.97;;;-0.40;99.90;;;;;;4968838;28;20031;-88
2021/01/25 05:35:16;;;;;;;9.27;5.60;;;-0.40;99.90;;;;;;4974475;28;20089;-88
2021/01/25 05:37:42;;;;;;;10.30;5.77;;;-0.40;99.90;;;;;;4974326;28;20085;-88
2021/01/25 05:40:13;;;;;;;11.43;5.77;;;-0.40;99.90;;;;;;4973897;28;20030;-87
2021/01/25 05:42:41;;;;;;;9.90;5.83;;;-0.40;99.90;;;;;;4974339;28;20031;-88
2021/01/25 05:45:11;;;;;;;9.57;5.37;;;-0.40;99.90;;;;;;4962700;28;20030;-88
2021/01/25 05:47:52;;;;;;;9.47;6.00;;;-0.40;99.90;;;;;;4962120;28;20118;-88
2021/01/25 05:50:33;;;;;;;10.47;5.60;;;-0.40;99.90;;;;;;4961289;28;20033;-88
2021/01/25 05:53:01;;;;;;;10.27;6.17;;;-0.40;99.90;;;;;;4974343;28;20344;-88
2021/01/25 05:55:27;;;;;;;9.93;5.90;;;-0.40;99.90;;;;;;4954138;28;20031;-88
2021/01/25 05:57:53;;;;;;;12.97;6.73;;;-0.40;99.90;;;;;;4950493;28;20066;-87
2021/01/25 06:00:19;;;;;;;10.47;6.77;;;-0.30;99.90;;;;;;4956560;28;20027;-87
2021/01/25 06:02:49;;;;;;;10.20;6.33;;;-0.40;99.90;;;;;;4956803;28;20034;-88
2021/01/25 06:05:28;;;;;;;10.13;5.97;;;-0.40;99.90;;;;;;4967978;28;20031;-87
2021/01/25 06:08:13;;;;;;;10.93;6.20;;;-0.40;99.90;;;;;;4962061;28;20073;-88
2021/01/25 06:11:05;;;;;;;10.60;6.77;;;-0.30;99.90;;;;;;4965319;28;20094;-88
2021/01/25 06:13:47;;;;;;;10.25;6.47;;;-0.30;99.90;;;;;;4969262;28;20027;-87
2021/01/25 06:16:14;;;;;;;10.27;6.95;;;-0.40;99.90;;;;;;4976406;28;20035;-88
2021/01/25 06:18:44;;;;;;;12.20;7.17;;;-0.40;99.90;;;;;;4972270;28;20102;-88
2021/01/25 06:21:12;;;;;;;10.90;6.67;;;-0.40;99.90;;;;;;4961611;28;20507;-87
2021/01/25 06:23:37;;;;;;;9.13;6.10;;;-0.40;99.90;;;;;;4960436;28;20353;-89
2021/01/25 06:26:05;;;;;;;10.40;7.10;;;-0.50;99.90;;;;;;4960733;28;20111;-88
2021/01/25 06:28:35;;;;;;;11.40;7.43;;;-0.50;99.90;;;;;;4961047;28;20047;-88
2021/01/25 06:31:04;;;;;;;11.70;6.80;;;-0.60;99.90;;;;;;4955447;29;20028;-88
2021/01/25 06:33:38;;;;;;;13.43;7.03;;;-0.60;99.90;;;;;;4956415;28;20023;-88
2021/01/25 06:36:08;;;;;;;12.10;6.57;;;-0.60;99.90;;;;;;4967025;28;20102;-88
2021/01/25 06:38:38;;;;;;;11.93;7.07;;;-0.70;99.90;;;;;;4955333;28;20130;-88
2021/01/25 06:41:09;;;;;;;12.23;7.07;;;-0.70;99.90;;;;;;4952515;28;20468;-88
2021/01/25 06:43:37;;;;;;;13.57;8.17;;;-0.80;99.90;;;;;;4955089;28;20031;-87
2021/01/25 06:46:03;;;;;;;15.67;8.77;;;-0.80;99.90;;;;;;4955568;28;20121;-87
2021/01/25 06:48:30;;;;;;;17.57;8.90;;;-0.90;99.90;;;;;;4954151;28;20476;-88
2021/01/25 06:51:00;;;;;;;19.17;8.87;;;-0.90;99.90;;;;;;4953760;28;20110;-88
2021/01/25 06:53:35;;;;;;;15.50;9.30;;;-0.90;99.90;;;;;;4957915;28;20031;-90
2021/01/25 06:56:05;;;;;;;19.60;10.33;;;-0.90;99.90;;;;;;4952700;28;20023;-88
2021/01/25 06:58:31;;;;;;;18.33;9.93;;;-1.00;99.90;;;;;;4946939;28;20738;-89
2021/01/25 07:01:05;;;;;;;18.47;9.40;;;-0.90;99.90;;;;;;4966785;28;20118;-88
2021/01/25 07:03:44;;;;;;;21.63;9.43;;;-0.90;99.90;;;;;;4954320;28;20033;-91
2021/01/25 07:06:15;;;;;;;14.20;8.87;;;-0.90;99.90;;;;;;4950182;28;20028;-90
2021/01/25 07:11:52;;;;;;;20.40;9.33;;;-0.90;99.90;;;;;;4958556;28;20102;-89
2021/01/25 07:14:24;;;;;;;21.97;9.13;;;-0.90;99.90;;;;;;4954003;28;20097;-91
2021/01/25 07:16:52;;;;;;;14.67;8.93;;;-0.90;99.90;;;;;;4978338;28;20106;-92
2021/01/25 07:19:21;;;;;;;18.13;9.03;;;-0.80;99.90;;;;;;4958215;28;20035;-91
2021/01/25 07:21:49;;;;;;;17.83;8.73;;;-0.90;99.90;;;;;;4974126;28;20607;-90
2021/01/25 07:24:20;;;;;;;18.73;9.33;;;-0.80;99.90;;;;;;4955534;28;20122;-91
2021/01/25 07:26:52;;;;;;;19.00;9.10;;;-0.80;99.90;;;;;;4953306;28;20082;-90
2021/01/25 07:29:18;;;;;;;17.23;9.25;;;-0.70;99.90;;;;;;4955553;28;20051;-88
2021/01/25 07:31:44;;;;;;;22.60;8.40;;;-0.60;99.90;;;;;;4957014;28;20072;-89
2021/01/25 07:34:11;;;;;;;14.17;7.60;;;-0.40;99.90;;;;;;4941698;28;20053;-88
2021/01/25 07:36:39;;;;;;;15.80;7.57;;;-0.40;99.90;;;;;;4955807;28;20521;-91
2021/01/25 07:39:18;;;;;;;14.83;8.17;;;-0.30;99.90;;;;;;4956216;28;20373;-92
2021/01/25 07:41:45;;;;;;;16.63;7.60;;;-0.20;99.90;;;;;;4955518;28;20030;-90
2021/01/25 07:44:13;;;;;;;16.80;7.30;;;-0.20;99.90;;;;;;4955034;28;20042;-90
2021/01/25 07:46:49;;;;;;;15.07;6.90;;;0.00;99.90;;;;;;4956280;28;20035;-91
2021/01/25 07:49:25;;;;;;;15.40;6.77;;;0.00;99.90;;;;;;4952562;28;20045;-91
2021/01/25 07:51:51;;;;;;;15.53;6.53;;;0.00;99.90;;;;;;4969150;28;20034;-88
2021/01/25 07:54:17;;;;;;;17.47;7.20;;;0.00;99.90;;;;;;4967795;28;20030;-90
2021/01/25 07:56:43;;;;;;;15.63;7.40;;;0.00;99.90;;;;;;4954708;28;20089;-89
2021/01/25 07:59:16;;;;;;;18.90;7.57;;;0.10;99.90;;;;;;4948942;28;20712;-89
2021/01/25 08:01:50;;;;;;;20.33;7.20;;;0.10;99.90;;;;;;4967359;28;20030;-89
2021/01/25 08:04:21;;;;;;;22.27;7.80;;;0.10;99.90;;;;;;4955068;28;20493;-89
2021/01/25 08:06:48;;;;;;;17.97;6.90;;;0.10;99.90;;;;;;4976094;28;20023;-88
2021/01/25 08:09:18;;;;;;;16.53;7.83;;;0.20;99.90;;;;;;4956665;28;20027;-89
2021/01/25 08:11:45;;;;;;;13.67;7.17;;;0.20;99.90;;;;;;4982045;28;20119;-89
2021/01/25 08:14:24;;;;;;;18.53;7.03;;;0.20;99.90;;;;;;4979269;28;20094;-88
2021/01/25 08:17:04;;;;;;;14.70;7.33;;;0.20;99.90;;;;;;4971191;28;20397;-87
2021/01/25 08:19:43;;;;;;;14.50;7.23;;;0.20;99.90;;;;;;4970712;28;20534;-87
2021/01/25 08:22:20;;;;;;;16.27;7.17;;;0.10;99.90;;;;;;4968977;28;20031;-88
2021/01/25 08:24:57;;;;;;;16.67;7.00;;;0.00;99.90;;;;;;4956835;28;20041;-88
2021/01/25 08:27:24;;;;;;;17.97;7.23;;;-0.10;99.90;;;;;;4956055;28;20052;-89
2021/01/25 08:30:05;;;;;;;14.20;7.77;;;-0.10;99.90;;;;;;4953825;28;20058;-89
2021/01/25 08:32:46;;;;;;;11.93;6.67;;;0.00;99.90;;;;;;4952208;28;20349;-90
2021/01/25 08:35:13;;;;;;;18.57;7.63;;;0.10;99.90;;;;;;4947153;28;20062;-87
2021/01/25 08:37:39;;;;;;;15.80;7.83;;;0.10;99.90;;;;;;4954879;28;20097;-88
2021/01/25 08:40:20;;;;;;;12.90;6.90;;;0.10;99.90;;;;;;4961670;28;20035;-87
2021/01/25 08:42:47;;;;;;;15.97;6.93;;;0.10;99.90;;;;;;4967875;28;20031;-88
2021/01/25 08:45:26;;;;;;;15.07;6.23;;;0.20;99.90;;;;;;4953373;28;20028;-87
2021/01/25 08:48:03;;;;;;;14.13;6.50;;;0.30;99.90;;;;;;4951458;28;20042;-88
2021/01/25 08:50:29;;;;;;;11.50;5.87;;;0.40;99.90;;;;;;4965664;28;20039;-88
2021/01/25 08:53:01;;;;;;;15.13;6.00;;;0.60;99.90;;;;;;4961422;28;20455;-88
2021/01/25 08:55:37;;;;;;;13.85;6.53;;;0.70;99.90;;;;;;4953392;28;20036;-88
2021/01/25 08:58:31;;;;;;;11.77;6.27;;;0.80;99.90;;;;;;4956109;28;20041;-87
2021/01/25 09:00:58;;;;;;;13.77;6.67;;;0.80;99.90;;;;;;4956652;28;20046;-88
2021/01/25 09:03:25;;;;;;;13.40;6.27;;;1.00;99.90;;;;;;4952616;28;20049;-86
2021/01/25 09:05:54;;;;;;;10.17;5.43;;;1.20;99.90;;;;;;4946612;28;20035;-86
2021/01/25 09:08:21;;;;;;;11.97;5.17;;;1.30;99.90;;;;;;4948058;28;20031;-86
2021/01/25 09:10:48;;;;;;;11.30;5.70;;;1.40;99.90;;;;;;4950872;28;20027;-87
2021/01/25 09:13:14;;;;;;;11.93;6.30;;;1.50;99.90;;;;;;4967988;28;20035;-87
2021/01/25 09:15:39;;;;;;;16.30;6.80;;;1.30;99.90;;;;;;4969855;28;20149;-87
2021/01/25 09:18:07;;;;;;;10.23;6.20;;;1.20;99.90;;;;;;4960054;28;20043;-87
2021/01/25 09:20:33;;;;;;;10.97;5.90;;;1.20;99.90;;;;;;4960341;28;20054;-86
2021/01/25 09:22:59;;;;;;;16.03;6.70;;;1.30;99.90;;;;;;4948101;28;21319;-86
2021/01/25 09:25:25;;;;;;;13.23;6.13;;;1.40;99.90;;;;;;4953197;28;20038;-85
2021/01/25 09:27:51;;;;;;;11.97;5.73;;;1.60;99.90;;;;;;4967039;28;20027;-85
2021/01/25 09:30:17;;;;;;;12.57;5.77;;;1.80;99.90;;;;;;4948642;28;20496;-86
2021/01/25 09:32:44;;;;;;;9.83;5.37;;;1.80;99.90;;;;;;4968051;28;20038;-86
2021/01/25 09:35:12;;;;;;;13.67;5.23;;;1.70;99.90;;;;;;4962130;28;20047;-86
2021/01/25 09:37:38;;;;;;;10.77;5.80;;;1.70;99.90;;;;;;4957782;28;20077;-87
2021/01/25 09:40:05;;;;;;;12.93;5.33;;;1.70;99.90;;;;;;4952566;28;20042;-87
2021/01/25 09:42:31;;;;;;;12.83;5.47;;;1.60;99.90;;;;;;4973227;28;20037;-87
2021/01/25 09:44:57;;;;;;;12.03;6.30;;;1.50;99.90;;;;;;4961620;28;20050;-86
2021/01/25 09:47:23;;;;;;;10.33;5.50;;;1.50;99.90;;;;;;4958723;28;20034;-86
2021/01/25 09:49:49;;;;;;;12.07;5.47;;;1.60;99.90;;;;;;4956755;28;20027;-86
2021/01/25 09:52:14;;;;;;;13.80;5.37;;;1.70;99.90;;;;;;4967080;28;20058;-86
2021/01/25 09:54:40;;;;;;;10.37;5.73;;;1.70;99.90;;;;;;4969931;28;20082;-85
2021/01/25 09:57:06;;;;;;;12.00;5.63;;;1.80;99.90;;;;;;4960858;28;20023;-86
2021/01/25 09:59:32;;;;;;;10.43;4.83;;;1.70;99.90;;;;;;4959038;28;20034;-87
2021/01/25 10:01:58;;;;;;;12.83;5.13;;;1.80;99.90;;;;;;4955249;28;20042;-87
2021/01/25 10:04:24;;;;;;;10.67;4.67;;;1.90;99.90;;;;;;4971208;28;20035;-87
2021/01/25 10:06:50;;;;;;;11.70;4.83;;;1.90;99.90;;;;;;4954457;28;20026;-87
2021/01/25 10:09:17;;;;;;;8.77;5.20;;;1.80;99.90;;;;;;4963906;28;20114;-87
2021/01/25 10:11:43;;;;;;;13.03;5.27;;;2.00;99.90;;;;;;4959648;28;20052;-87
2021/01/25 10:14:09;;;;;;;11.57;5.70;;;2.10;99.90;;;;;;4972035;28;20034;-87
2021/01/25 10:16:34;;;;;;;13.20;4.63;;;2.20;99.90;;;;;;4961222;28;20378;-87
2021/01/25 10:19:00;;;;;;;9.43;4.73;;;2.40;99.90;;;;;;4957285;28;20473;-87
2021/01/25 10:21:26;;;;;;;10.80;4.73;;;2.60;99.90;;;;;;4958692;28;20398;-87
2021/01/25 10:23:52;;;;;;;8.70;4.27;;;2.50;99.90;;;;;;4957514;28;20026;-87
2021/01/25 10:26:20;;;;;;;8.07;4.20;;;2.50;99.90;;;;;;4959115;28;20069;-87
2021/01/25 10:28:46;;;;;;;11.23;5.33;;;2.60;99.90;;;;;;4960582;28;20049;-87
2021/01/25 10:31:12;;;;;;;7.93;4.83;;;2.60;99.90;;;;;;4963120;28;20030;-87
2021/01/25 10:33:38;;;;;;;8.73;4.30;;;2.80;99.90;;;;;;4952132;28;20031;-85
2021/01/25 10:36:04;;;;;;;12.77;4.63;;;3.10;99.90;;;;;;4965956;28;20607;-87
2021/01/25 10:38:29;;;;;;;9.20;4.30;;;3.20;99.90;;;;;;4962138;28;20089;-86
2021/01/25 10:40:55;;;;;;;7.77;4.17;;;3.10;99.90;;;;;;4959201;28;20768;-86
2021/01/25 10:43:21;;;;;;;7.67;4.37;;;3.00;99.90;;;;;;4970058;28;20062;-87
2021/01/25 10:45:47;;;;;;;8.17;4.07;;;3.20;99.90;;;;;;4968299;28;20030;-86
2021/01/25 10:48:12;;;;;;;10.33;4.57;;;3.20;99.90;;;;;;4953417;28;20030;-86
2021/01/25 10:50:38;;;;;;;10.50;4.23;;;3.10;99.90;;;;;;4953409;28;20023;-86
2021/01/25 10:53:05;;;;;;;8.03;3.60;;;3.00;99.90;;;;;;4956431;28;20027;-88
2021/01/25 10:55:32;;;;;;;9.23;4.27;;;2.90;99.90;;;;;;4955246;28;20030;-86
2021/01/25 10:58:01;;;;;;;10.20;3.87;;;2.90;99.90;;;;;;4955684;28;20165;-85
2021/01/25 11:54:48;;;;;;;4.90;2.07;;;4.20;99.90;;;;;;5037578;28;20046;-87
2021/01/25 11:57:14;;;;;;;3.97;1.57;;;4.00;99.90;;;;;;5049342;28;20138;-87
2021/01/25 11:59:39;;;;;;;4.87;1.80;;;3.70;99.90;;;;;;5049223;28;20025;-88
2021/01/25 12:02:05;;;;;;;4.10;2.00;;;3.60;99.90;;;;;;5053303;28;20017;-87
2021/01/25 12:04:31;;;;;;;3.60;1.90;;;3.50;99.90;;;;;;5052065;28;20036;-88
2021/01/25 12:06:57;;;;;;;6.07;1.90;;;3.30;99.90;;;;;;5038918;28;20025;-87
2021/01/25 12:09:23;;;;;;;4.63;2.20;;;3.10;99.90;;;;;;5044429;28;20026;-88
2021/01/25 12:11:49;;;;;;;4.37;1.73;;;3.00;99.90;;;;;;5043603;28;20022;-88
2021/01/25 12:14:15;;;;;;;7.47;2.17;;;3.00;99.90;;;;;;5043402;28;20743;-87
2021/01/25 12:16:40;;;;;;;3.37;1.97;;;3.00;99.90;;;;;;5054330;28;20096;-87
2021/01/25 12:19:06;;;;;;;5.30;2.03;;;2.80;99.90;;;;;;5047460;28;20071;-87
2021/01/25 12:21:32;;;;;;;5.17;1.77;;;2.80;99.90;;;;;;5051281;28;20052;-88
2021/01/25 12:23:58;;;;;;;4.93;2.00;;;2.80;99.90;;;;;;5050670;28;20021;-88
2021/01/25 12:26:24;;;;;;;4.63;1.80;;;2.90;99.90;;;;;;5058240;28;20020;-87
2021/01/25 12:28:49;;;;;;;5.00;2.20;;;3.00;99.90;;;;;;5051818;28;20112;-86
2021/01/25 12:31:15;;;;;;;4.47;1.80;;;3.00;99.90;;;;;;5047222;28;20141;-88
2021/01/25 12:33:41;;;;;;;6.27;2.17;;;3.20;99.90;;;;;;5047964;28;20056;-87
2021/01/25 12:36:06;;;;;;;4.37;1.97;;;3.30;99.90;;;;;;5053558;28;20026;-87
2021/01/25 12:38:32;;;;;;;3.80;1.70;;;3.20;99.90;;;;;;5047672;28;20079;-89
2021/01/25 12:40:58;;;;;;;3.03;1.50;;;3.30;99.90;;;;;;5052495;28;20032;-87
2021/01/25 12:43:24;;;;;;;3.40;1.57;;;3.20;99.90;;;;;;5056028;28;20031;-88
2021/01/25 12:45:49;;;;;;;4.43;1.93;;;3.20;99.90;;;;;;5056411;28;20029;-88
2021/01/25 12:48:15;;;;;;;5.00;1.40;;;3.30;99.90;;;;;;5047443;28;20055;-87
2021/01/25 12:50:41;;;;;;;4.70;1.40;;;3.20;99.90;;;;;;5033827;28;20037;-88
2021/01/25 12:53:07;;;;;;;6.50;1.47;;;3.20;99.90;;;;;;5040274;28;20029;-88
2021/01/25 12:55:33;;;;;;;4.20;1.83;;;3.20;99.90;;;;;;5039888;28;20247;-88
2021/01/25 12:57:58;;;;;;;3.43;1.20;;;3.20;99.90;;;;;;5050837;28;20044;-87
2021/01/25 13:00:26;;;;;;;3.70;1.60;;;3.20;99.90;;;;;;5043003;28;20028;-87
2021/01/25 13:02:52;;;;;;;4.07;1.83;;;3.30;99.90;;;;;;5040278;28;20021;-88
2021/01/25 13:05:19;;;;;;;3.30;1.70;;;3.40;99.90;;;;;;5042684;28;20052;-88
2021/01/25 13:07:45;;;;;;;5.33;1.40;;;3.50;99.90;;;;;;5035093;28;20031;-88
2021/01/25 13:10:13;;;;;;;5.47;1.70;;;3.60;99.90;;;;;;5046939;28;20025;-88
2021/01/25 13:12:39;;;;;;;3.53;1.70;;;3.80;99.90;;;;;;5042038;28;20018;-88
2021/01/25 13:15:11;;;;;;;3.87;1.63;;;3.70;99.90;;;;;;5033772;28;20037;-88
2021/01/25 13:17:37;;;;;;;3.72;1.63;;;3.70;99.90;;;;;;5034168;28;20095;-88
2021/01/25 13:20:04;;;;;;;3.60;1.80;;;3.50;99.90;;;;;;5043252;28;20026;-87
2021/01/25 13:22:30;;;;;;;4.40;1.90;;;3.40;99.90;;;;;;5038684;28;20040;-88
2021/01/25 13:24:56;;;;;;;2.80;1.00;;;3.20;99.90;;;;;;5041394;28;20022;-87
2021/01/25 13:27:21;;;;;;;1.97;0.77;;;3.00;99.90;;;;;;5044971;28;20389;-87
2021/01/25 13:29:47;;;;;;;1.07;0.40;;;2.80;99.90;;;;;;5050334;28;20029;-87
2021/01/25 13:32:12;;;;;;;1.50;0.60;;;2.70;99.90;;;;;;5044766;28;20529;-88
2021/01/25 13:34:38;;;;;;;1.50;0.50;;;2.60;99.90;;;;;;5041478;28;20477;-88
2021/01/25 13:37:06;;;;;;;1.10;0.37;;;2.60;99.90;;;;;;5038662;28;20068;-88
2021/01/25 13:39:32;;;;;;;2.00;0.50;;;2.50;99.90;;;;;;5039996;28;20033;-88
2021/01/25 13:42:00;;;;;;;0.90;0.40;;;2.50;99.90;;;;;;5038323;28;20392;-88
2021/01/25 13:44:26;;;;;;;1.17;0.40;;;2.60;99.90;;;;;;5035335;28;20029;-88
2021/01/25 13:46:52;;;;;;;0.83;0.30;;;2.70;99.90;;;;;;5042684;28;20035;-87
2021/01/25 13:49:18;;;;;;;1.80;0.40;;;2.80;99.90;;;;;;5043406;28;20032;-88